Etusivu
METAR-TAF:

METAR-TAF

Lentoasemat :

Grinnell, Iowa, Yhdysvallat

Leveyspiiri: 41-42-35N, Pituuspiiri: 092-44-09W, korkeus merenpinnasta: 307 m

Tämänhetkinen sää

Tämä raportti tehtiin 9 minuuttia sitten, kello 09.55 UTC
tyyntä
Lämpötila 0°C
Kosteus 100%
Ilmanpaine 1018 hPa
Näkyvyys: 16.1 km
selkeää

METAR: KGGI 170955Z AUTO 00000KT 10SM CLR 00/00 A3005 RMK AO2 T10011004

Aika: 05:04 (10:04 UTC)


TAF: puuttuu

Säähavainnot ja -ennusteet yli 4000 lentoasemalta (METAR- ja TAF-raportit).

Käytössä olevat sääasemat on merkitty karttaan keltaisilla ja punaisilla pisteillä.

Aseta hiiri pisteen päälle nähdäksesi sääaseman nimen.

Klikkaa sitten nähdäksesi säähavainnot ja -ennusteet.

Kartan vaihtaminen: klikkaa mustalla rastilla varustettuja vihreitä pisteitä, niin voit zoomata sisään; viivalla varustettua vihreää pistettä, niin voit zoomata ulos tai vihreitä nuolia, niin pääset viereisille kartoille.


METAR-TAF: